Aérodrome :
LOGIN :

S'inscrire | Disclaimer

   EN    FR    IT 

 










Légende :    VFR   VFR Marginal   IFR   IFR Intensif   IFR Très Intensif
Visi : 
Plafond : 
>= 8 km
>= 3000ft
5 à 8 km
1000 à 3000 ft
1500m à 5 km
500 à 1000 ft
800 à 1500m
200 à 500 ft
< 800m
< 200 ft
Symboles :   Orages  Brouillard  Fortes neiges  Fortes précipitations  Vent > 20 kt
SIGMETs :   Divers  Orages  Givrage  Turbulence  Onde Orograph.  Cendres Volcan.






- Altitude de l'aérodrome : 162 ft
- Code IATA : BOD


LFBD - Bordeaux / Merignac

DERNIER METAR :
  • 272130Z AUTO 26002KT CAVOK 07/06 Q1020 NOSIG

METARs EXPIRÉS :
  • 272100Z AUTO 26003KT CAVOK 08/07 Q1020 NOSIG
  • 272030Z AUTO 28006KT CAVOK 09/07 Q1020 NOSIG
  • 272000Z AUTO 29006KT 9999 SCT027 09/07 Q1020 NOSIG
  • 271930Z AUTO 29005KT 9999 BKN028 10/07 Q1019 NOSIG
  • 271900Z AUTO 29005KT 9999 FEW020 OVC030 10/08 Q1019 NOSIG

TAF AMD TAF LFBD
Valide du 27 à 20h jusqu'au 29 à 00h UTC


272030Z 2720/2824 29005KT 9999 SCT020 TX15/2815Z TN06/2800Z
BECMG 2800/2802 2000 BR
PROB30 2802/2805 0600 FG
FM280500 18005KT 5000 BR BKN012
TEMPO 2806/2812 2000 -DZ SCT005 BKN020
BECMG 2812/2814 9999 NSW BKN016
BECMG 2814/2816 NSC
PROB30
TEMPO 2821/2824 3000 MIFG
ATIS : +33 5 57 92 81 04



MET'MAP, la Météo Aéronautique d'un coup d'oeil ! - Copyright ORBIFLY Décembre 2007 - Disclaimer

ORBIFLY MET'MAP TEAM :

Programmation & Développement : Alexandra Zaïnal
Sur une idée originale de : Baudouin d'Aumeries
Assistance à la programmation : Marc-Olivier Méhu
Soutien technique & logistique : Manuel Goepfert

Contact : metmap@orbifly.com




SOURCES & CREDITS :

   NOAA